<?xml version="1.0" encoding="UTF-8" standalone="no" ?>
<gpx xmlns="http://www.topografix.com/GPX/1/1" xmlns:xsi="http://www.w3.org/2001/XMLSchema-instance" xsi:schemaLocation="http://www.topografix.com/GPX/1/1 http://www.topografix.com/GPX/1/1/gpx.xsd" version="1.1" creator="VisuGPX - https://www.visugpx.com">
  <metadata>
    <name>la haute verriere</name>
    <desc><![CDATA[DEPART LAVAL SUR VOLOGNE LA HAUTE VERRIERE]]></desc>
  </metadata>
  <trk>
    <name><![CDATA[20180903114353-xtYgV]]></name>
    <trkseg>
      <trkpt lat="48.20471" lon="6.67488">
        <ele>477</ele>
        <time>2014-10-16T07:30:55Z</time>
      </trkpt>
      <trkpt lat="48.20474" lon="6.67491">
        <ele>477</ele>
        <time>2014-10-16T07:31:39Z</time>
      </trkpt>
      <trkpt lat="48.20473" lon="6.67491">
        <ele>477</ele>
        <time>2014-10-16T07:31:56Z</time>
      </trkpt>
      <trkpt lat="48.2048" lon="6.675">
        <ele>478</ele>
        <time>2014-10-16T07:34:45Z</time>
      </trkpt>
      <trkpt lat="48.20483" lon="6.67518">
        <ele>476</ele>
        <time>2014-10-16T07:36:33Z</time>
      </trkpt>
      <trkpt lat="48.20479" lon="6.67546">
        <ele>475</ele>
        <time>2014-10-16T07:36:58Z</time>
      </trkpt>
      <trkpt lat="48.20477" lon="6.67574">
        <ele>474</ele>
        <time>2014-10-16T07:37:16Z</time>
      </trkpt>
      <trkpt lat="48.20482" lon="6.67588">
        <ele>473</ele>
        <time>2014-10-16T07:37:37Z</time>
      </trkpt>
      <trkpt lat="48.20494" lon="6.67576">
        <ele>476</ele>
        <time>2014-10-16T07:38:06Z</time>
      </trkpt>
      <trkpt lat="48.20507" lon="6.67553">
        <ele>482</ele>
        <time>2014-10-16T07:38:25Z</time>
      </trkpt>
      <trkpt lat="48.20524" lon="6.67524">
        <ele>484</ele>
        <time>2014-10-16T07:38:47Z</time>
      </trkpt>
      <trkpt lat="48.20541" lon="6.67496">
        <ele>489</ele>
        <time>2014-10-16T07:39:13Z</time>
      </trkpt>
      <trkpt lat="48.20559" lon="6.67478">
        <ele>490</ele>
        <time>2014-10-16T07:39:38Z</time>
      </trkpt>
      <trkpt lat="48.20577" lon="6.6745">
        <ele>492</ele>
        <time>2014-10-16T07:40:03Z</time>
      </trkpt>
      <trkpt lat="48.20588" lon="6.67423">
        <ele>498</ele>
        <time>2014-10-16T07:40:22Z</time>
      </trkpt>
      <trkpt lat="48.206" lon="6.67396">
        <ele>501</ele>
        <time>2014-10-16T07:40:41Z</time>
      </trkpt>
      <trkpt lat="48.20612" lon="6.67367">
        <ele>501</ele>
        <time>2014-10-16T07:41:02Z</time>
      </trkpt>
      <trkpt lat="48.20622" lon="6.67332">
        <ele>505</ele>
        <time>2014-10-16T07:41:23Z</time>
      </trkpt>
      <trkpt lat="48.20633" lon="6.67298">
        <ele>506</ele>
        <time>2014-10-16T07:41:41Z</time>
      </trkpt>
      <trkpt lat="48.20653" lon="6.67273">
        <ele>506</ele>
        <time>2014-10-16T07:42:02Z</time>
      </trkpt>
      <trkpt lat="48.20674" lon="6.67244">
        <ele>509</ele>
        <time>2014-10-16T07:42:25Z</time>
      </trkpt>
      <trkpt lat="48.20692" lon="6.67221">
        <ele>512</ele>
        <time>2014-10-16T07:42:47Z</time>
      </trkpt>
      <trkpt lat="48.20706" lon="6.67191">
        <ele>514</ele>
        <time>2014-10-16T07:43:11Z</time>
      </trkpt>
      <trkpt lat="48.20715" lon="6.67158">
        <ele>520</ele>
        <time>2014-10-16T07:43:30Z</time>
      </trkpt>
      <trkpt lat="48.20724" lon="6.67129">
        <ele>521</ele>
        <time>2014-10-16T07:43:51Z</time>
      </trkpt>
      <trkpt lat="48.20733" lon="6.671">
        <ele>522</ele>
        <time>2014-10-16T07:44:10Z</time>
      </trkpt>
      <trkpt lat="48.20738" lon="6.67073">
        <ele>526</ele>
        <time>2014-10-16T07:44:33Z</time>
      </trkpt>
      <trkpt lat="48.20732" lon="6.6704">
        <ele>528</ele>
        <time>2014-10-16T07:44:59Z</time>
      </trkpt>
      <trkpt lat="48.20719" lon="6.67013">
        <ele>529</ele>
        <time>2014-10-16T07:45:24Z</time>
      </trkpt>
      <trkpt lat="48.20699" lon="6.66992">
        <ele>534</ele>
        <time>2014-10-16T07:46:06Z</time>
      </trkpt>
      <trkpt lat="48.20694" lon="6.66969">
        <ele>535</ele>
        <time>2014-10-16T07:47:18Z</time>
      </trkpt>
      <trkpt lat="48.20714" lon="6.66941">
        <ele>535</ele>
        <time>2014-10-16T07:47:50Z</time>
      </trkpt>
      <trkpt lat="48.20739" lon="6.66916">
        <ele>539</ele>
        <time>2014-10-16T07:48:21Z</time>
      </trkpt>
      <trkpt lat="48.20763" lon="6.6689">
        <ele>540</ele>
        <time>2014-10-16T07:48:53Z</time>
      </trkpt>
      <trkpt lat="48.20787" lon="6.66865">
        <ele>542</ele>
        <time>2014-10-16T07:49:18Z</time>
      </trkpt>
      <trkpt lat="48.20808" lon="6.66832">
        <ele>545</ele>
        <time>2014-10-16T07:49:45Z</time>
      </trkpt>
      <trkpt lat="48.20825" lon="6.668">
        <ele>545</ele>
        <time>2014-10-16T07:50:09Z</time>
      </trkpt>
      <trkpt lat="48.20844" lon="6.66784">
        <ele>539</ele>
        <time>2014-10-16T07:50:31Z</time>
      </trkpt>
      <trkpt lat="48.20875" lon="6.66789">
        <ele>538</ele>
        <time>2014-10-16T07:50:56Z</time>
      </trkpt>
      <trkpt lat="48.20906" lon="6.66804">
        <ele>537</ele>
        <time>2014-10-16T07:51:18Z</time>
      </trkpt>
      <trkpt lat="48.20921" lon="6.6683">
        <ele>537</ele>
        <time>2014-10-16T07:51:41Z</time>
      </trkpt>
      <trkpt lat="48.20931" lon="6.66864">
        <ele>536</ele>
        <time>2014-10-16T07:52:07Z</time>
      </trkpt>
      <trkpt lat="48.20937" lon="6.66902">
        <ele>538</ele>
        <time>2014-10-16T07:52:27Z</time>
      </trkpt>
      <trkpt lat="48.20938" lon="6.66943">
        <ele>540</ele>
        <time>2014-10-16T07:52:51Z</time>
      </trkpt>
      <trkpt lat="48.20937" lon="6.66987">
        <ele>541</ele>
        <time>2014-10-16T07:53:17Z</time>
      </trkpt>
      <trkpt lat="48.20937" lon="6.67026">
        <ele>540</ele>
        <time>2014-10-16T07:53:43Z</time>
      </trkpt>
      <trkpt lat="48.20934" lon="6.67072">
        <ele>541</ele>
        <time>2014-10-16T07:54:10Z</time>
      </trkpt>
      <trkpt lat="48.20939" lon="6.67113">
        <ele>540</ele>
        <time>2014-10-16T07:54:37Z</time>
      </trkpt>
      <trkpt lat="48.20953" lon="6.67134">
        <ele>539</ele>
        <time>2014-10-16T07:55:04Z</time>
      </trkpt>
      <trkpt lat="48.20973" lon="6.67159">
        <ele>537</ele>
        <time>2014-10-16T07:55:30Z</time>
      </trkpt>
      <trkpt lat="48.20987" lon="6.67182">
        <ele>537</ele>
        <time>2014-10-16T07:55:52Z</time>
      </trkpt>
      <trkpt lat="48.20999" lon="6.67209">
        <ele>537</ele>
        <time>2014-10-16T07:56:15Z</time>
      </trkpt>
      <trkpt lat="48.21014" lon="6.67234">
        <ele>532</ele>
        <time>2014-10-16T07:56:35Z</time>
      </trkpt>
      <trkpt lat="48.21025" lon="6.67261">
        <ele>534</ele>
        <time>2014-10-16T07:56:56Z</time>
      </trkpt>
      <trkpt lat="48.21037" lon="6.67288">
        <ele>535</ele>
        <time>2014-10-16T07:57:16Z</time>
      </trkpt>
      <trkpt lat="48.21049" lon="6.67312">
        <ele>535</ele>
        <time>2014-10-16T07:57:36Z</time>
      </trkpt>
      <trkpt lat="48.2106" lon="6.67336">
        <ele>540</ele>
        <time>2014-10-16T07:57:54Z</time>
      </trkpt>
      <trkpt lat="48.21073" lon="6.67359">
        <ele>541</ele>
        <time>2014-10-16T07:58:12Z</time>
      </trkpt>
      <trkpt lat="48.21085" lon="6.67381">
        <ele>534</ele>
        <time>2014-10-16T07:58:30Z</time>
      </trkpt>
      <trkpt lat="48.21099" lon="6.67406">
        <ele>536</ele>
        <time>2014-10-16T07:58:49Z</time>
      </trkpt>
      <trkpt lat="48.21116" lon="6.67422">
        <ele>537</ele>
        <time>2014-10-16T07:59:07Z</time>
      </trkpt>
      <trkpt lat="48.21133" lon="6.67432">
        <ele>535</ele>
        <time>2014-10-16T07:59:24Z</time>
      </trkpt>
      <trkpt lat="48.21151" lon="6.67441">
        <ele>534</ele>
        <time>2014-10-16T07:59:41Z</time>
      </trkpt>
      <trkpt lat="48.2117" lon="6.67456">
        <ele>525</ele>
        <time>2014-10-16T07:59:59Z</time>
      </trkpt>
      <trkpt lat="48.21189" lon="6.67464">
        <ele>525</ele>
        <time>2014-10-16T08:00:16Z</time>
      </trkpt>
      <trkpt lat="48.21207" lon="6.6747">
        <ele>523</ele>
        <time>2014-10-16T08:00:34Z</time>
      </trkpt>
      <trkpt lat="48.21226" lon="6.67476">
        <ele>522</ele>
        <time>2014-10-16T08:00:54Z</time>
      </trkpt>
      <trkpt lat="48.2125" lon="6.67479">
        <ele>520</ele>
        <time>2014-10-16T08:01:16Z</time>
      </trkpt>
      <trkpt lat="48.21262" lon="6.67517">
        <ele>514</ele>
        <time>2014-10-16T08:04:49Z</time>
      </trkpt>
      <trkpt lat="48.21281" lon="6.6754">
        <ele>512</ele>
        <time>2014-10-16T08:05:11Z</time>
      </trkpt>
      <trkpt lat="48.21293" lon="6.6757">
        <ele>511</ele>
        <time>2014-10-16T08:05:31Z</time>
      </trkpt>
      <trkpt lat="48.21303" lon="6.67596">
        <ele>511</ele>
        <time>2014-10-16T08:05:52Z</time>
      </trkpt>
      <trkpt lat="48.21312" lon="6.67623">
        <ele>511</ele>
        <time>2014-10-16T08:06:12Z</time>
      </trkpt>
      <trkpt lat="48.21321" lon="6.67657">
        <ele>509</ele>
        <time>2014-10-16T08:06:33Z</time>
      </trkpt>
      <trkpt lat="48.21329" lon="6.6769">
        <ele>515</ele>
        <time>2014-10-16T08:06:55Z</time>
      </trkpt>
      <trkpt lat="48.21337" lon="6.67722">
        <ele>508</ele>
        <time>2014-10-16T08:07:16Z</time>
      </trkpt>
      <trkpt lat="48.21342" lon="6.67758">
        <ele>513</ele>
        <time>2014-10-16T08:07:39Z</time>
      </trkpt>
      <trkpt lat="48.21348" lon="6.678">
        <ele>515</ele>
        <time>2014-10-16T08:08:04Z</time>
      </trkpt>
      <trkpt lat="48.21349" lon="6.67836">
        <ele>522</ele>
        <time>2014-10-16T08:08:25Z</time>
      </trkpt>
      <trkpt lat="48.21352" lon="6.6787">
        <ele>522</ele>
        <time>2014-10-16T08:08:44Z</time>
      </trkpt>
      <trkpt lat="48.21357" lon="6.67897">
        <ele>523</ele>
        <time>2014-10-16T08:09:03Z</time>
      </trkpt>
      <trkpt lat="48.21364" lon="6.67925">
        <ele>527</ele>
        <time>2014-10-16T08:09:24Z</time>
      </trkpt>
      <trkpt lat="48.21373" lon="6.67953">
        <ele>526</ele>
        <time>2014-10-16T08:09:43Z</time>
      </trkpt>
      <trkpt lat="48.21382" lon="6.67979">
        <ele>526</ele>
        <time>2014-10-16T08:10:01Z</time>
      </trkpt>
      <trkpt lat="48.21392" lon="6.68008">
        <ele>527</ele>
        <time>2014-10-16T08:10:19Z</time>
      </trkpt>
      <trkpt lat="48.21403" lon="6.68036">
        <ele>528</ele>
        <time>2014-10-16T08:10:39Z</time>
      </trkpt>
      <trkpt lat="48.21413" lon="6.68063">
        <ele>528</ele>
        <time>2014-10-16T08:11:01Z</time>
      </trkpt>
      <trkpt lat="48.21427" lon="6.68098">
        <ele>528</ele>
        <time>2014-10-16T08:11:25Z</time>
      </trkpt>
      <trkpt lat="48.2144" lon="6.68127">
        <ele>528</ele>
        <time>2014-10-16T08:11:46Z</time>
      </trkpt>
      <trkpt lat="48.2145" lon="6.68156">
        <ele>529</ele>
        <time>2014-10-16T08:12:06Z</time>
      </trkpt>
      <trkpt lat="48.21461" lon="6.68181">
        <ele>532</ele>
        <time>2014-10-16T08:12:27Z</time>
      </trkpt>
      <trkpt lat="48.21475" lon="6.68216">
        <ele>533</ele>
        <time>2014-10-16T08:12:49Z</time>
      </trkpt>
      <trkpt lat="48.21487" lon="6.68242">
        <ele>535</ele>
        <time>2014-10-16T08:13:10Z</time>
      </trkpt>
      <trkpt lat="48.21497" lon="6.68272">
        <ele>536</ele>
        <time>2014-10-16T08:13:30Z</time>
      </trkpt>
      <trkpt lat="48.21506" lon="6.68305">
        <ele>534</ele>
        <time>2014-10-16T08:13:49Z</time>
      </trkpt>
      <trkpt lat="48.21513" lon="6.68338">
        <ele>536</ele>
        <time>2014-10-16T08:14:10Z</time>
      </trkpt>
      <trkpt lat="48.2152" lon="6.68368">
        <ele>536</ele>
        <time>2014-10-16T08:14:32Z</time>
      </trkpt>
      <trkpt lat="48.21526" lon="6.68408">
        <ele>537</ele>
        <time>2014-10-16T08:14:56Z</time>
      </trkpt>
      <trkpt lat="48.21528" lon="6.68447">
        <ele>539</ele>
        <time>2014-10-16T08:15:24Z</time>
      </trkpt>
      <trkpt lat="48.21527" lon="6.68482">
        <ele>540</ele>
        <time>2014-10-16T08:15:45Z</time>
      </trkpt>
      <trkpt lat="48.21528" lon="6.68516">
        <ele>540</ele>
        <time>2014-10-16T08:16:04Z</time>
      </trkpt>
      <trkpt lat="48.21528" lon="6.68545">
        <ele>540</ele>
        <time>2014-10-16T08:16:23Z</time>
      </trkpt>
      <trkpt lat="48.21528" lon="6.68575">
        <ele>540</ele>
        <time>2014-10-16T08:16:41Z</time>
      </trkpt>
      <trkpt lat="48.2153" lon="6.68603">
        <ele>540</ele>
        <time>2014-10-16T08:17:01Z</time>
      </trkpt>
      <trkpt lat="48.21534" lon="6.68635">
        <ele>540</ele>
        <time>2014-10-16T08:17:21Z</time>
      </trkpt>
      <trkpt lat="48.21537" lon="6.68668">
        <ele>542</ele>
        <time>2014-10-16T08:17:43Z</time>
      </trkpt>
      <trkpt lat="48.2154" lon="6.68701">
        <ele>543</ele>
        <time>2014-10-16T08:18:09Z</time>
      </trkpt>
      <trkpt lat="48.21541" lon="6.68725">
        <ele>544</ele>
        <time>2014-10-16T08:18:35Z</time>
      </trkpt>
      <trkpt lat="48.21541" lon="6.68757">
        <ele>548</ele>
        <time>2014-10-16T08:19:09Z</time>
      </trkpt>
      <trkpt lat="48.21546" lon="6.68816">
        <ele>550</ele>
        <time>2014-10-16T08:19:44Z</time>
      </trkpt>
      <trkpt lat="48.21551" lon="6.68868">
        <ele>552</ele>
        <time>2014-10-16T08:20:19Z</time>
      </trkpt>
      <trkpt lat="48.21557" lon="6.68942">
        <ele>553</ele>
        <time>2014-10-16T08:21:08Z</time>
      </trkpt>
      <trkpt lat="48.21585" lon="6.69017">
        <ele>549</ele>
        <time>2014-10-16T08:21:51Z</time>
      </trkpt>
      <trkpt lat="48.2162" lon="6.69076">
        <ele>545</ele>
        <time>2014-10-16T08:22:36Z</time>
      </trkpt>
      <trkpt lat="48.21645" lon="6.69133">
        <ele>547</ele>
        <time>2014-10-16T08:23:08Z</time>
      </trkpt>
      <trkpt lat="48.21661" lon="6.69163">
        <ele>546</ele>
        <time>2014-10-16T08:23:35Z</time>
      </trkpt>
      <trkpt lat="48.21689" lon="6.69213">
        <ele>543</ele>
        <time>2014-10-16T08:24:17Z</time>
      </trkpt>
      <trkpt lat="48.21713" lon="6.69254">
        <ele>547</ele>
        <time>2014-10-16T08:24:43Z</time>
      </trkpt>
      <trkpt lat="48.21728" lon="6.69283">
        <ele>548</ele>
        <time>2014-10-16T08:25:06Z</time>
      </trkpt>
      <trkpt lat="48.21757" lon="6.69334">
        <ele>547</ele>
        <time>2014-10-16T08:25:54Z</time>
      </trkpt>
      <trkpt lat="48.21775" lon="6.69347">
        <ele>544</ele>
        <time>2014-10-16T08:28:38Z</time>
      </trkpt>
      <trkpt lat="48.21775" lon="6.69343">
        <ele>544</ele>
        <time>2014-10-16T08:31:36Z</time>
      </trkpt>
      <trkpt lat="48.21766" lon="6.69353">
        <ele>545</ele>
        <time>2014-10-16T08:34:19Z</time>
      </trkpt>
      <trkpt lat="48.2178" lon="6.69388">
        <ele>546</ele>
        <time>2014-10-16T08:35:50Z</time>
      </trkpt>
      <trkpt lat="48.21797" lon="6.69398">
        <ele>544</ele>
        <time>2014-10-16T08:36:36Z</time>
      </trkpt>
      <trkpt lat="48.21821" lon="6.69436">
        <ele>548</ele>
        <time>2014-10-16T08:37:06Z</time>
      </trkpt>
      <trkpt lat="48.21845" lon="6.69471">
        <ele>540</ele>
        <time>2014-10-16T08:37:34Z</time>
      </trkpt>
      <trkpt lat="48.21873" lon="6.69501">
        <ele>545</ele>
        <time>2014-10-16T08:38:02Z</time>
      </trkpt>
      <trkpt lat="48.21895" lon="6.69528">
        <ele>543</ele>
        <time>2014-10-16T08:38:30Z</time>
      </trkpt>
      <trkpt lat="48.21931" lon="6.69582">
        <ele>537</ele>
        <time>2014-10-16T08:39:19Z</time>
      </trkpt>
      <trkpt lat="48.2195" lon="6.69618">
        <ele>541</ele>
        <time>2014-10-16T08:39:46Z</time>
      </trkpt>
      <trkpt lat="48.21977" lon="6.69654">
        <ele>542</ele>
        <time>2014-10-16T08:40:15Z</time>
      </trkpt>
      <trkpt lat="48.22002" lon="6.69665">
        <ele>541</ele>
        <time>2014-10-16T08:40:38Z</time>
      </trkpt>
      <trkpt lat="48.22025" lon="6.69668">
        <ele>541</ele>
        <time>2014-10-16T08:40:58Z</time>
      </trkpt>
      <trkpt lat="48.2205" lon="6.69683">
        <ele>540</ele>
        <time>2014-10-16T08:41:21Z</time>
      </trkpt>
      <trkpt lat="48.22071" lon="6.69702">
        <ele>539</ele>
        <time>2014-10-16T08:41:44Z</time>
      </trkpt>
      <trkpt lat="48.22094" lon="6.69756">
        <ele>534</ele>
        <time>2014-10-16T08:42:59Z</time>
      </trkpt>
      <trkpt lat="48.22075" lon="6.69772">
        <ele>541</ele>
        <time>2014-10-16T08:44:31Z</time>
      </trkpt>
      <trkpt lat="48.22058" lon="6.69795">
        <ele>543</ele>
        <time>2014-10-16T08:44:58Z</time>
      </trkpt>
      <trkpt lat="48.22035" lon="6.69817">
        <ele>544</ele>
        <time>2014-10-16T08:45:30Z</time>
      </trkpt>
      <trkpt lat="48.22021" lon="6.69855">
        <ele>547</ele>
        <time>2014-10-16T08:46:04Z</time>
      </trkpt>
      <trkpt lat="48.22012" lon="6.69906">
        <ele>548</ele>
        <time>2014-10-16T08:46:34Z</time>
      </trkpt>
      <trkpt lat="48.22001" lon="6.69934">
        <ele>549</ele>
        <time>2014-10-16T08:46:58Z</time>
      </trkpt>
      <trkpt lat="48.21987" lon="6.69959">
        <ele>552</ele>
        <time>2014-10-16T08:47:20Z</time>
      </trkpt>
      <trkpt lat="48.21971" lon="6.69982">
        <ele>552</ele>
        <time>2014-10-16T08:47:46Z</time>
      </trkpt>
      <trkpt lat="48.21947" lon="6.69988">
        <ele>552</ele>
        <time>2014-10-16T08:48:12Z</time>
      </trkpt>
      <trkpt lat="48.21933" lon="6.69957">
        <ele>553</ele>
        <time>2014-10-16T08:48:48Z</time>
      </trkpt>
      <trkpt lat="48.21922" lon="6.69922">
        <ele>557</ele>
        <time>2014-10-16T08:49:28Z</time>
      </trkpt>
      <trkpt lat="48.21902" lon="6.69886">
        <ele>556</ele>
        <time>2014-10-16T08:50:02Z</time>
      </trkpt>
      <trkpt lat="48.21886" lon="6.69857">
        <ele>555</ele>
        <time>2014-10-16T08:50:35Z</time>
      </trkpt>
      <trkpt lat="48.21861" lon="6.69838">
        <ele>555</ele>
        <time>2014-10-16T08:51:01Z</time>
      </trkpt>
      <trkpt lat="48.21838" lon="6.69817">
        <ele>557</ele>
        <time>2014-10-16T08:51:23Z</time>
      </trkpt>
      <trkpt lat="48.21816" lon="6.69798">
        <ele>556</ele>
        <time>2014-10-16T08:51:46Z</time>
      </trkpt>
      <trkpt lat="48.21792" lon="6.69791">
        <ele>556</ele>
        <time>2014-10-16T08:52:08Z</time>
      </trkpt>
      <trkpt lat="48.21774" lon="6.69771">
        <ele>557</ele>
        <time>2014-10-16T08:52:32Z</time>
      </trkpt>
      <trkpt lat="48.21757" lon="6.69745">
        <ele>560</ele>
        <time>2014-10-16T08:52:56Z</time>
      </trkpt>
      <trkpt lat="48.21732" lon="6.69728">
        <ele>560</ele>
        <time>2014-10-16T08:53:16Z</time>
      </trkpt>
      <trkpt lat="48.21712" lon="6.69722">
        <ele>560</ele>
        <time>2014-10-16T08:53:36Z</time>
      </trkpt>
      <trkpt lat="48.21689" lon="6.69717">
        <ele>559</ele>
        <time>2014-10-16T08:54:04Z</time>
      </trkpt>
      <trkpt lat="48.2166" lon="6.69708">
        <ele>555</ele>
        <time>2014-10-16T08:54:28Z</time>
      </trkpt>
      <trkpt lat="48.2164" lon="6.69703">
        <ele>555</ele>
        <time>2014-10-16T08:54:53Z</time>
      </trkpt>
      <trkpt lat="48.21603" lon="6.69689">
        <ele>555</ele>
        <time>2014-10-16T08:55:21Z</time>
      </trkpt>
      <trkpt lat="48.21532" lon="6.69635">
        <ele>560</ele>
        <time>2014-10-16T08:59:24Z</time>
      </trkpt>
      <trkpt lat="48.21537" lon="6.69587">
        <ele>560</ele>
        <time>2014-10-16T09:00:02Z</time>
      </trkpt>
      <trkpt lat="48.21535" lon="6.69548">
        <ele>558</ele>
        <time>2014-10-16T09:00:38Z</time>
      </trkpt>
      <trkpt lat="48.21521" lon="6.69556">
        <ele>558</ele>
        <time>2014-10-16T09:01:02Z</time>
      </trkpt>
      <trkpt lat="48.21506" lon="6.69576">
        <ele>557</ele>
        <time>2014-10-16T09:01:22Z</time>
      </trkpt>
      <trkpt lat="48.21477" lon="6.69578">
        <ele>551</ele>
        <time>2014-10-16T09:01:42Z</time>
      </trkpt>
      <trkpt lat="48.21447" lon="6.69556">
        <ele>549</ele>
        <time>2014-10-16T09:03:42Z</time>
      </trkpt>
      <trkpt lat="48.21462" lon="6.69559">
        <ele>549</ele>
        <time>2014-10-16T09:04:06Z</time>
      </trkpt>
      <trkpt lat="48.21478" lon="6.69547">
        <ele>549</ele>
        <time>2014-10-16T09:04:28Z</time>
      </trkpt>
      <trkpt lat="48.215" lon="6.69533">
        <ele>549</ele>
        <time>2014-10-16T09:04:49Z</time>
      </trkpt>
      <trkpt lat="48.2152" lon="6.69522">
        <ele>556</ele>
        <time>2014-10-16T09:06:33Z</time>
      </trkpt>
      <trkpt lat="48.21533" lon="6.6953">
        <ele>557</ele>
        <time>2014-10-16T09:07:20Z</time>
      </trkpt>
      <trkpt lat="48.21519" lon="6.69561">
        <ele>558</ele>
        <time>2014-10-16T09:07:54Z</time>
      </trkpt>
      <trkpt lat="48.21507" lon="6.69607">
        <ele>559</ele>
        <time>2014-10-16T09:08:25Z</time>
      </trkpt>
      <trkpt lat="48.21493" lon="6.69629">
        <ele>558</ele>
        <time>2014-10-16T09:08:45Z</time>
      </trkpt>
      <trkpt lat="48.21477" lon="6.69649">
        <ele>559</ele>
        <time>2014-10-16T09:09:06Z</time>
      </trkpt>
      <trkpt lat="48.21462" lon="6.69669">
        <ele>561</ele>
        <time>2014-10-16T09:09:25Z</time>
      </trkpt>
      <trkpt lat="48.21447" lon="6.6969">
        <ele>561</ele>
        <time>2014-10-16T09:09:45Z</time>
      </trkpt>
      <trkpt lat="48.21433" lon="6.69724">
        <ele>562</ele>
        <time>2014-10-16T09:10:07Z</time>
      </trkpt>
      <trkpt lat="48.2142" lon="6.69748">
        <ele>566</ele>
        <time>2014-10-16T09:10:26Z</time>
      </trkpt>
      <trkpt lat="48.21401" lon="6.69778">
        <ele>561</ele>
        <time>2014-10-16T09:10:55Z</time>
      </trkpt>
      <trkpt lat="48.21373" lon="6.69807">
        <ele>558</ele>
        <time>2014-10-16T09:11:30Z</time>
      </trkpt>
      <trkpt lat="48.21351" lon="6.69823">
        <ele>555</ele>
        <time>2014-10-16T09:12:04Z</time>
      </trkpt>
      <trkpt lat="48.21327" lon="6.69842">
        <ele>544</ele>
        <time>2014-10-16T09:12:30Z</time>
      </trkpt>
      <trkpt lat="48.21305" lon="6.69864">
        <ele>537</ele>
        <time>2014-10-16T09:12:58Z</time>
      </trkpt>
      <trkpt lat="48.2129" lon="6.69878">
        <ele>534</ele>
        <time>2014-10-16T09:13:24Z</time>
      </trkpt>
      <trkpt lat="48.2128" lon="6.69893">
        <ele>533</ele>
        <time>2014-10-16T09:13:47Z</time>
      </trkpt>
      <trkpt lat="48.21263" lon="6.69901">
        <ele>529</ele>
        <time>2014-10-16T09:14:10Z</time>
      </trkpt>
      <trkpt lat="48.21247" lon="6.69907">
        <ele>521</ele>
        <time>2014-10-16T09:14:27Z</time>
      </trkpt>
      <trkpt lat="48.21302" lon="6.69974">
        <ele>535</ele>
        <time>2014-10-16T09:17:14Z</time>
      </trkpt>
      <trkpt lat="48.21304" lon="6.70008">
        <ele>536</ele>
        <time>2014-10-16T09:18:19Z</time>
      </trkpt>
      <trkpt lat="48.21293" lon="6.70006">
        <ele>536</ele>
        <time>2014-10-16T09:19:51Z</time>
      </trkpt>
      <trkpt lat="48.2125" lon="6.70002">
        <ele>532</ele>
        <time>2014-10-16T09:20:36Z</time>
      </trkpt>
      <trkpt lat="48.21217" lon="6.69999">
        <ele>526</ele>
        <time>2014-10-16T09:21:09Z</time>
      </trkpt>
      <trkpt lat="48.21188" lon="6.69999">
        <ele>524</ele>
        <time>2014-10-16T09:21:34Z</time>
      </trkpt>
      <trkpt lat="48.21151" lon="6.70013">
        <ele>523</ele>
        <time>2014-10-16T09:22:11Z</time>
      </trkpt>
      <trkpt lat="48.21123" lon="6.70039">
        <ele>521</ele>
        <time>2014-10-16T09:22:42Z</time>
      </trkpt>
      <trkpt lat="48.21093" lon="6.70069">
        <ele>519</ele>
        <time>2014-10-16T09:23:10Z</time>
      </trkpt>
      <trkpt lat="48.2108" lon="6.70095">
        <ele>512</ele>
        <time>2014-10-16T09:23:30Z</time>
      </trkpt>
      <trkpt lat="48.21077" lon="6.70129">
        <ele>510</ele>
        <time>2014-10-16T09:23:54Z</time>
      </trkpt>
      <trkpt lat="48.21078" lon="6.70165">
        <ele>517</ele>
        <time>2014-10-16T09:24:17Z</time>
      </trkpt>
      <trkpt lat="48.2108" lon="6.70197">
        <ele>510</ele>
        <time>2014-10-16T09:24:45Z</time>
      </trkpt>
      <trkpt lat="48.21083" lon="6.70235">
        <ele>510</ele>
        <time>2014-10-16T09:25:12Z</time>
      </trkpt>
      <trkpt lat="48.21102" lon="6.70278">
        <ele>520</ele>
        <time>2014-10-16T09:25:41Z</time>
      </trkpt>
      <trkpt lat="48.21107" lon="6.70316">
        <ele>518</ele>
        <time>2014-10-16T09:26:18Z</time>
      </trkpt>
      <trkpt lat="48.21071" lon="6.70298">
        <ele>503</ele>
        <time>2014-10-16T09:26:44Z</time>
      </trkpt>
      <trkpt lat="48.21054" lon="6.70283">
        <ele>502</ele>
        <time>2014-10-16T09:27:17Z</time>
      </trkpt>
      <trkpt lat="48.21051" lon="6.7026">
        <ele>503</ele>
        <time>2014-10-16T09:27:56Z</time>
      </trkpt>
      <trkpt lat="48.21035" lon="6.70226">
        <ele>502</ele>
        <time>2014-10-16T09:28:25Z</time>
      </trkpt>
      <trkpt lat="48.21015" lon="6.7016">
        <ele>499</ele>
        <time>2014-10-16T09:29:07Z</time>
      </trkpt>
      <trkpt lat="48.20999" lon="6.70149">
        <ele>487</ele>
        <time>2014-10-16T09:29:37Z</time>
      </trkpt>
      <trkpt lat="48.20981" lon="6.70181">
        <ele>485</ele>
        <time>2014-10-16T09:30:04Z</time>
      </trkpt>
      <trkpt lat="48.20975" lon="6.70187">
        <ele>484</ele>
        <time>2014-10-16T09:33:05Z</time>
      </trkpt>
      <trkpt lat="48.20973" lon="6.70159">
        <ele>484</ele>
        <time>2014-10-16T09:33:23Z</time>
      </trkpt>
      <trkpt lat="48.20968" lon="6.70129">
        <ele>483</ele>
        <time>2014-10-16T09:33:43Z</time>
      </trkpt>
      <trkpt lat="48.20961" lon="6.70101">
        <ele>482</ele>
        <time>2014-10-16T09:34:01Z</time>
      </trkpt>
      <trkpt lat="48.20955" lon="6.70074">
        <ele>480</ele>
        <time>2014-10-16T09:35:12Z</time>
      </trkpt>
      <trkpt lat="48.20951" lon="6.70055">
        <ele>480</ele>
        <time>2014-10-16T09:36:24Z</time>
      </trkpt>
      <trkpt lat="48.20942" lon="6.70032">
        <ele>479</ele>
        <time>2014-10-16T09:36:40Z</time>
      </trkpt>
      <trkpt lat="48.20934" lon="6.70004">
        <ele>477</ele>
        <time>2014-10-16T09:36:57Z</time>
      </trkpt>
      <trkpt lat="48.2093" lon="6.69969">
        <ele>478</ele>
        <time>2014-10-16T09:37:14Z</time>
      </trkpt>
      <trkpt lat="48.20924" lon="6.69943">
        <ele>477</ele>
        <time>2014-10-16T09:37:30Z</time>
      </trkpt>
      <trkpt lat="48.20915" lon="6.69914">
        <ele>474</ele>
        <time>2014-10-16T09:37:45Z</time>
      </trkpt>
      <trkpt lat="48.20907" lon="6.6989">
        <ele>472</ele>
        <time>2014-10-16T09:38:01Z</time>
      </trkpt>
      <trkpt lat="48.20901" lon="6.69863">
        <ele>472</ele>
        <time>2014-10-16T09:38:17Z</time>
      </trkpt>
      <trkpt lat="48.20897" lon="6.69834">
        <ele>473</ele>
        <time>2014-10-16T09:38:34Z</time>
      </trkpt>
      <trkpt lat="48.20901" lon="6.69803">
        <ele>473</ele>
        <time>2014-10-16T09:38:50Z</time>
      </trkpt>
      <trkpt lat="48.20902" lon="6.69771">
        <ele>474</ele>
        <time>2014-10-16T09:39:06Z</time>
      </trkpt>
      <trkpt lat="48.20902" lon="6.69741">
        <ele>475</ele>
        <time>2014-10-16T09:39:21Z</time>
      </trkpt>
      <trkpt lat="48.20904" lon="6.69718">
        <ele>474</ele>
        <time>2014-10-16T09:39:36Z</time>
      </trkpt>
      <trkpt lat="48.20899" lon="6.69691">
        <ele>474</ele>
        <time>2014-10-16T09:39:52Z</time>
      </trkpt>
      <trkpt lat="48.2089" lon="6.69666">
        <ele>476</ele>
        <time>2014-10-16T09:40:08Z</time>
      </trkpt>
      <trkpt lat="48.20884" lon="6.69639">
        <ele>477</ele>
        <time>2014-10-16T09:40:24Z</time>
      </trkpt>
      <trkpt lat="48.20877" lon="6.69613">
        <ele>478</ele>
        <time>2014-10-16T09:40:39Z</time>
      </trkpt>
      <trkpt lat="48.20873" lon="6.69586">
        <ele>478</ele>
        <time>2014-10-16T09:40:55Z</time>
      </trkpt>
      <trkpt lat="48.20872" lon="6.69557">
        <ele>479</ele>
        <time>2014-10-16T09:41:11Z</time>
      </trkpt>
      <trkpt lat="48.20872" lon="6.69526">
        <ele>479</ele>
        <time>2014-10-16T09:41:27Z</time>
      </trkpt>
      <trkpt lat="48.20874" lon="6.69496">
        <ele>476</ele>
        <time>2014-10-16T09:41:44Z</time>
      </trkpt>
      <trkpt lat="48.20879" lon="6.6946">
        <ele>476</ele>
        <time>2014-10-16T09:42:02Z</time>
      </trkpt>
      <trkpt lat="48.20885" lon="6.69419">
        <ele>476</ele>
        <time>2014-10-16T09:42:27Z</time>
      </trkpt>
      <trkpt lat="48.20903" lon="6.69386">
        <ele>472</ele>
        <time>2014-10-16T09:42:54Z</time>
      </trkpt>
      <trkpt lat="48.20932" lon="6.69348">
        <ele>474</ele>
        <time>2014-10-16T09:43:18Z</time>
      </trkpt>
      <trkpt lat="48.20964" lon="6.69332">
        <ele>469</ele>
        <time>2014-10-16T09:43:40Z</time>
      </trkpt>
      <trkpt lat="48.2098" lon="6.69315">
        <ele>469</ele>
        <time>2014-10-16T09:43:56Z</time>
      </trkpt>
      <trkpt lat="48.20987" lon="6.69293">
        <ele>468</ele>
        <time>2014-10-16T09:44:12Z</time>
      </trkpt>
      <trkpt lat="48.20996" lon="6.69271">
        <ele>467</ele>
        <time>2014-10-16T09:44:28Z</time>
      </trkpt>
      <trkpt lat="48.21006" lon="6.69245">
        <ele>468</ele>
        <time>2014-10-16T09:44:44Z</time>
      </trkpt>
      <trkpt lat="48.21017" lon="6.69221">
        <ele>470</ele>
        <time>2014-10-16T09:45:00Z</time>
      </trkpt>
      <trkpt lat="48.21025" lon="6.69193">
        <ele>470</ele>
        <time>2014-10-16T09:45:15Z</time>
      </trkpt>
      <trkpt lat="48.21029" lon="6.69166">
        <ele>469</ele>
        <time>2014-10-16T09:45:30Z</time>
      </trkpt>
      <trkpt lat="48.21024" lon="6.69139">
        <ele>470</ele>
        <time>2014-10-16T09:45:45Z</time>
      </trkpt>
      <trkpt lat="48.21014" lon="6.69114">
        <ele>470</ele>
        <time>2014-10-16T09:45:59Z</time>
      </trkpt>
      <trkpt lat="48.21012" lon="6.69099">
        <ele>470</ele>
        <time>2014-10-16T09:46:14Z</time>
      </trkpt>
      <trkpt lat="48.21005" lon="6.69082">
        <ele>469</ele>
        <time>2014-10-16T09:46:29Z</time>
      </trkpt>
      <trkpt lat="48.20995" lon="6.69061">
        <ele>467</ele>
        <time>2014-10-16T09:46:44Z</time>
      </trkpt>
      <trkpt lat="48.20983" lon="6.69037">
        <ele>467</ele>
        <time>2014-10-16T09:46:59Z</time>
      </trkpt>
      <trkpt lat="48.20972" lon="6.69014">
        <ele>468</ele>
        <time>2014-10-16T09:47:14Z</time>
      </trkpt>
      <trkpt lat="48.20962" lon="6.68988">
        <ele>468</ele>
        <time>2014-10-16T09:47:29Z</time>
      </trkpt>
      <trkpt lat="48.20955" lon="6.6896">
        <ele>467</ele>
        <time>2014-10-16T09:47:44Z</time>
      </trkpt>
      <trkpt lat="48.20951" lon="6.68932">
        <ele>467</ele>
        <time>2014-10-16T09:47:59Z</time>
      </trkpt>
      <trkpt lat="48.2095" lon="6.68904">
        <ele>467</ele>
        <time>2014-10-16T09:48:14Z</time>
      </trkpt>
      <trkpt lat="48.20949" lon="6.68875">
        <ele>468</ele>
        <time>2014-10-16T09:48:29Z</time>
      </trkpt>
      <trkpt lat="48.20948" lon="6.68845">
        <ele>468</ele>
        <time>2014-10-16T09:48:44Z</time>
      </trkpt>
      <trkpt lat="48.20947" lon="6.68817">
        <ele>471</ele>
        <time>2014-10-16T09:48:59Z</time>
      </trkpt>
      <trkpt lat="48.20946" lon="6.68787">
        <ele>471</ele>
        <time>2014-10-16T09:49:15Z</time>
      </trkpt>
      <trkpt lat="48.20943" lon="6.68759">
        <ele>470</ele>
        <time>2014-10-16T09:49:31Z</time>
      </trkpt>
      <trkpt lat="48.20937" lon="6.68732">
        <ele>472</ele>
        <time>2014-10-16T09:49:48Z</time>
      </trkpt>
      <trkpt lat="48.20934" lon="6.68702">
        <ele>473</ele>
        <time>2014-10-16T09:50:03Z</time>
      </trkpt>
      <trkpt lat="48.20932" lon="6.68673">
        <ele>470</ele>
        <time>2014-10-16T09:50:18Z</time>
      </trkpt>
      <trkpt lat="48.2093" lon="6.68643">
        <ele>474</ele>
        <time>2014-10-16T09:50:33Z</time>
      </trkpt>
      <trkpt lat="48.20929" lon="6.68615">
        <ele>475</ele>
        <time>2014-10-16T09:50:48Z</time>
      </trkpt>
      <trkpt lat="48.20927" lon="6.68588">
        <ele>471</ele>
        <time>2014-10-16T09:51:03Z</time>
      </trkpt>
      <trkpt lat="48.20925" lon="6.68558">
        <ele>476</ele>
        <time>2014-10-16T09:51:19Z</time>
      </trkpt>
      <trkpt lat="48.20925" lon="6.68529">
        <ele>477</ele>
        <time>2014-10-16T09:51:36Z</time>
      </trkpt>
      <trkpt lat="48.2092" lon="6.68501">
        <ele>470</ele>
        <time>2014-10-16T09:51:57Z</time>
      </trkpt>
      <trkpt lat="48.20911" lon="6.68463">
        <ele>466</ele>
        <time>2014-10-16T09:52:20Z</time>
      </trkpt>
      <trkpt lat="48.209" lon="6.68429">
        <ele>468</ele>
        <time>2014-10-16T09:52:35Z</time>
      </trkpt>
      <trkpt lat="48.2089" lon="6.68408">
        <ele>469</ele>
        <time>2014-10-16T09:52:51Z</time>
      </trkpt>
      <trkpt lat="48.20882" lon="6.6839">
        <ele>469</ele>
        <time>2014-10-16T09:53:08Z</time>
      </trkpt>
      <trkpt lat="48.20869" lon="6.68365">
        <ele>468</ele>
        <time>2014-10-16T09:53:25Z</time>
      </trkpt>
      <trkpt lat="48.20863" lon="6.68338">
        <ele>468</ele>
        <time>2014-10-16T09:53:40Z</time>
      </trkpt>
      <trkpt lat="48.20859" lon="6.68309">
        <ele>472</ele>
        <time>2014-10-16T09:53:56Z</time>
      </trkpt>
      <trkpt lat="48.20856" lon="6.68281">
        <ele>473</ele>
        <time>2014-10-16T09:54:11Z</time>
      </trkpt>
      <trkpt lat="48.20854" lon="6.68253">
        <ele>473</ele>
        <time>2014-10-16T09:54:27Z</time>
      </trkpt>
      <trkpt lat="48.2085" lon="6.68225">
        <ele>478</ele>
        <time>2014-10-16T09:54:44Z</time>
      </trkpt>
      <trkpt lat="48.20846" lon="6.68199">
        <ele>479</ele>
        <time>2014-10-16T09:55:00Z</time>
      </trkpt>
      <trkpt lat="48.20845" lon="6.68169">
        <ele>479</ele>
        <time>2014-10-16T09:55:17Z</time>
      </trkpt>
      <trkpt lat="48.20838" lon="6.68144">
        <ele>484</ele>
        <time>2014-10-16T09:55:34Z</time>
      </trkpt>
      <trkpt lat="48.20826" lon="6.68122">
        <ele>478</ele>
        <time>2014-10-16T09:55:51Z</time>
      </trkpt>
      <trkpt lat="48.20816" lon="6.68097">
        <ele>479</ele>
        <time>2014-10-16T09:56:07Z</time>
      </trkpt>
      <trkpt lat="48.20809" lon="6.68069">
        <ele>481</ele>
        <time>2014-10-16T09:56:24Z</time>
      </trkpt>
      <trkpt lat="48.208" lon="6.68044">
        <ele>481</ele>
        <time>2014-10-16T09:56:54Z</time>
      </trkpt>
      <trkpt lat="48.20798" lon="6.68019">
        <ele>481</ele>
        <time>2014-10-16T09:57:22Z</time>
      </trkpt>
      <trkpt lat="48.20792" lon="6.67992">
        <ele>481</ele>
        <time>2014-10-16T09:58:17Z</time>
      </trkpt>
      <trkpt lat="48.20778" lon="6.67963">
        <ele>479</ele>
        <time>2014-10-16T09:58:34Z</time>
      </trkpt>
      <trkpt lat="48.20773" lon="6.67929">
        <ele>478</ele>
        <time>2014-10-16T09:58:50Z</time>
      </trkpt>
      <trkpt lat="48.20768" lon="6.67901">
        <ele>479</ele>
        <time>2014-10-16T09:59:05Z</time>
      </trkpt>
      <trkpt lat="48.20761" lon="6.67876">
        <ele>481</ele>
        <time>2014-10-16T09:59:21Z</time>
      </trkpt>
      <trkpt lat="48.20756" lon="6.67847">
        <ele>479</ele>
        <time>2014-10-16T09:59:37Z</time>
      </trkpt>
      <trkpt lat="48.20757" lon="6.67815">
        <ele>483</ele>
        <time>2014-10-16T09:59:53Z</time>
      </trkpt>
      <trkpt lat="48.20753" lon="6.67788">
        <ele>486</ele>
        <time>2014-10-16T10:00:10Z</time>
      </trkpt>
      <trkpt lat="48.20747" lon="6.67762">
        <ele>479</ele>
        <time>2014-10-16T10:00:26Z</time>
      </trkpt>
      <trkpt lat="48.2074" lon="6.67737">
        <ele>481</ele>
        <time>2014-10-16T10:00:41Z</time>
      </trkpt>
      <trkpt lat="48.20726" lon="6.67724">
        <ele>480</ele>
        <time>2014-10-16T10:00:57Z</time>
      </trkpt>
      <trkpt lat="48.20708" lon="6.67719">
        <ele>479</ele>
        <time>2014-10-16T10:01:12Z</time>
      </trkpt>
      <trkpt lat="48.20689" lon="6.6771">
        <ele>478</ele>
        <time>2014-10-16T10:01:28Z</time>
      </trkpt>
      <trkpt lat="48.20674" lon="6.67692">
        <ele>477</ele>
        <time>2014-10-16T10:01:43Z</time>
      </trkpt>
      <trkpt lat="48.20656" lon="6.67686">
        <ele>473</ele>
        <time>2014-10-16T10:01:57Z</time>
      </trkpt>
      <trkpt lat="48.20646" lon="6.67708">
        <ele>472</ele>
        <time>2014-10-16T10:02:19Z</time>
      </trkpt>
      <trkpt lat="48.20614" lon="6.67709">
        <ele>472</ele>
        <time>2014-10-16T10:02:36Z</time>
      </trkpt>
      <trkpt lat="48.20598" lon="6.67689">
        <ele>473</ele>
        <time>2014-10-16T10:02:50Z</time>
      </trkpt>
      <trkpt lat="48.20584" lon="6.6767">
        <ele>475</ele>
        <time>2014-10-16T10:03:05Z</time>
      </trkpt>
      <trkpt lat="48.20567" lon="6.67656">
        <ele>476</ele>
        <time>2014-10-16T10:03:21Z</time>
      </trkpt>
      <trkpt lat="48.20551" lon="6.67645">
        <ele>476</ele>
        <time>2014-10-16T10:03:36Z</time>
      </trkpt>
      <trkpt lat="48.20534" lon="6.67629">
        <ele>476</ele>
        <time>2014-10-16T10:03:52Z</time>
      </trkpt>
      <trkpt lat="48.20517" lon="6.67613">
        <ele>477</ele>
        <time>2014-10-16T10:04:10Z</time>
      </trkpt>
      <trkpt lat="48.20496" lon="6.67605">
        <ele>473</ele>
        <time>2014-10-16T10:04:28Z</time>
      </trkpt>
      <trkpt lat="48.20479" lon="6.67589">
        <ele>473</ele>
        <time>2014-10-16T10:04:45Z</time>
      </trkpt>
      <trkpt lat="48.20477" lon="6.6756">
        <ele>474</ele>
        <time>2014-10-16T10:05:02Z</time>
      </trkpt>
      <trkpt lat="48.20479" lon="6.67534">
        <ele>475</ele>
        <time>2014-10-16T10:05:23Z</time>
      </trkpt>
      <trkpt lat="48.20478" lon="6.67506">
        <ele>476</ele>
        <time>2014-10-16T10:05:40Z</time>
      </trkpt>
    </trkseg>
  </trk>
</gpx>